Time;durP1;ratioP1;P1;durP2;ratioP2;P2;SDS_P1;SDS_P2;PMS_P1;PMS_P2;Temp;Humidity;BMP_temperature;BMP_pressure;BME280_temperature;BME280_humidity;BME280_pressure;Samples;Min_cycle;Max_cycle;Signal;HPM_P1;HPM_P2
2023/10/20 00:03:31;;;;;;;10.17;4.77;;;4.50;1.00;;;;;;10313620;28;20194;-79
2023/10/20 00:08:52;;;;;;;6.50;4.03;;;4.50;1.00;;;;;;10300031;28;20199;-78
2023/10/20 00:14:14;;;;;;;5.67;4.03;;;;;;;;;;10298698;28;20239;-78
2023/10/20 00:19:35;;;;;;;5.63;4.13;;;4.60;1.00;;;;;;10313546;28;20240;-79
2023/10/20 00:24:56;;;;;;;4.73;3.43;;;4.60;1.00;;;;;;10299489;28;20209;-78
2023/10/20 00:30:18;;;;;;;5.40;3.93;;;4.60;27.70;;;;;;10312983;28;20202;-78
2023/10/20 00:35:39;;;;;;;5.27;3.80;;;4.50;99.90;;;;;;10312639;28;20264;-78
2023/10/20 00:41:01;;;;;;;4.67;3.77;;;4.60;99.90;;;;;;10312985;28;20240;-78
2023/10/20 00:46:23;;;;;;;5.43;4.00;;;4.50;99.90;;;;;;10298878;28;20204;-78
2023/10/20 00:51:44;;;;;;;6.17;3.43;;;4.50;99.90;;;;;;10299719;28;20368;-78
2023/10/20 00:57:05;;;;;;;5.13;3.40;;;4.50;99.90;;;;;;10285807;28;20222;-78
2023/10/20 01:02:29;;;;;;;6.73;3.70;;;4.50;99.90;;;;;;10273013;29;20198;-78
2023/10/20 01:07:51;;;;;;;5.17;3.47;;;4.50;42.10;;;;;;10309376;28;20221;-78
2023/10/20 01:13:14;;;;;;;5.33;3.30;;;4.50;1.00;;;;;;10268626;28;20200;-79
2023/10/20 01:18:38;;;;;;;5.20;3.63;;;4.50;15.40;;;;;;10299202;28;20277;-78
2023/10/20 01:24:02;;;;;;;5.60;3.40;;;4.50;98.70;;;;;;10306055;28;20252;-78
2023/10/20 01:29:23;;;;;;;3.40;2.97;;;4.50;99.90;;;;;;10319527;28;20200;-79
2023/10/20 01:34:45;;;;;;;3.73;3.10;;;4.60;1.00;;;;;;10319083;28;20229;-78
2023/10/20 01:40:09;;;;;;;4.03;2.90;;;4.50;1.00;;;;;;10318868;28;20267;-78
2023/10/20 01:45:31;;;;;;;4.27;3.47;;;4.50;99.90;;;;;;10304724;28;20283;-78
2023/10/20 01:50:52;;;;;;;4.07;3.20;;;4.40;1.00;;;;;;10278455;29;20378;-78
2023/10/20 01:56:13;;;;;;;3.67;2.83;;;4.40;1.00;;;;;;10312433;28;20392;-78
2023/10/20 02:01:34;;;;;;;4.30;3.33;;;4.40;1.00;;;;;;10317980;28;20224;-78
2023/10/20 02:06:56;;;;;;;4.27;3.40;;;4.50;1.00;;;;;;10317752;28;20384;-79
2023/10/20 02:12:17;;;;;;;4.03;2.90;;;4.50;1.00;;;;;;10290975;28;20561;-78
2023/10/20 02:17:38;;;;;;;5.10;2.80;;;4.50;99.90;;;;;;10282854;28;20242;-79
2023/10/20 02:23:00;;;;;;;2.97;2.53;;;4.50;1.00;;;;;;10298451;28;20201;-79
2023/10/20 02:28:21;;;;;;;3.57;2.43;;;4.50;1.00;;;;;;10302927;28;20489;-78
2023/10/20 02:33:43;;;;;;;4.97;2.63;;;4.60;99.90;;;;;;10316688;28;20520;-78
2023/10/20 02:39:04;;;;;;;3.37;2.70;;;4.60;1.00;;;;;;10302370;28;20318;-78
2023/10/20 02:44:27;;;;;;;3.30;2.70;;;4.60;1.00;;;;;;10317026;28;20208;-78
2023/10/20 02:49:55;;;;;;;4.50;2.80;;;4.50;99.90;;;;;;10288976;28;20204;-78
2023/10/20 02:55:17;;;;;;;3.23;2.67;;;4.50;1.00;;;;;;10316032;28;20572;-78
2023/10/20 03:00:43;;;;;;;3.33;2.07;;;4.60;1.00;;;;;;10288381;28;20492;-77
2023/10/20 03:06:04;;;;;;;3.00;2.37;;;4.50;1.00;;;;;;10315360;28;20268;-78
2023/10/20 03:11:25;;;;;;;2.70;2.40;;;4.50;1.00;;;;;;10315972;28;20197;-78
2023/10/20 03:16:47;;;;;;;3.50;2.77;;;4.50;1.00;;;;;;10313639;28;20300;-78
2023/10/20 03:22:08;;;;;;;4.47;2.93;;;4.50;85.90;;;;;;10318144;28;20196;-79
2023/10/20 03:27:30;;;;;;;3.97;3.10;;;4.40;99.90;;;;;;10314801;28;20229;-79
2023/10/20 03:32:51;;;;;;;6.80;3.53;;;4.40;99.90;;;;;;10314375;28;20411;-79
2023/10/20 03:38:14;;;;;;;9.17;4.03;;;4.30;99.90;;;;;;10300324;28;20238;-78
2023/10/20 03:43:36;;;;;;;6.93;3.80;;;4.30;1.00;;;;;;10313886;28;20432;-77
2023/10/20 03:48:58;;;;;;;5.40;3.33;;;4.30;1.00;;;;;;10314138;28;20276;-78
2023/10/20 03:54:24;;;;;;;7.60;3.80;;;4.40;99.90;;;;;;10313292;28;20554;-77
2023/10/20 03:59:46;;;;;;;4.57;3.07;;;4.40;99.90;;;;;;10300027;28;20277;-77
2023/10/20 04:05:08;;;;;;;6.17;3.17;;;4.40;99.90;;;;;;10300012;28;20264;-78
2023/10/20 04:10:29;;;;;;;5.70;4.10;;;4.50;99.90;;;;;;10313102;28;20244;-77
2023/10/20 04:15:54;;;;;;;6.10;3.97;;;4.40;99.90;;;;;;10314001;28;20231;-77
2023/10/20 04:21:15;;;;;;;7.63;4.07;;;4.40;99.90;;;;;;10299289;28;20212;-78
2023/10/20 04:26:38;;;;;;;7.83;3.57;;;4.40;99.90;;;;;;10313359;28;20272;-78
2023/10/20 04:54:23;;;;;;;4.63;4.13;;;4.40;99.90;;;;;;10320598;28;20227;-79
2023/10/20 04:59:44;;;;;;;5.90;4.97;;;4.40;99.90;;;;;;10320310;28;20249;-79
2023/10/20 05:05:15;;;;;;;4.43;3.47;;;4.50;99.90;;;;;;10321021;28;20255;-78
2023/10/20 05:10:36;;;;;;;6.23;3.83;;;4.50;74.40;;;;;;10295921;28;20202;-78
2023/10/20 05:15:58;;;;;;;5.97;4.17;;;4.40;99.90;;;;;;10317708;28;20319;-78
2023/10/20 05:21:19;;;;;;;5.30;4.20;;;4.40;99.90;;;;;;10314859;28;20430;-78
2023/10/20 05:26:44;;;;;;;5.43;3.50;;;4.40;99.90;;;;;;10319474;28;20272;-79
2023/10/20 05:32:06;;;;;;;5.70;3.63;;;4.50;1.00;;;;;;10319261;28;20211;-79
2023/10/20 05:37:28;;;;;;;7.83;5.07;;;4.50;1.00;;;;;;10318262;28;20226;-79
2023/10/20 05:42:49;;;;;;;5.00;4.00;;;4.60;1.00;;;;;;10318864;28;20201;-79
2023/10/20 05:48:12;;;;;;;7.67;4.50;;;4.50;1.00;;;;;;10290683;28;20488;-79
2023/10/20 05:53:33;;;;;;;5.80;4.27;;;4.50;99.90;;;;;;10291169;28;20204;-80
2023/10/20 05:58:55;;;;;;;5.63;4.67;;;4.50;99.90;;;;;;10304256;28;20229;-80
2023/10/20 06:04:16;;;;;;;18.03;9.47;;;4.50;99.90;;;;;;10316792;28;20193;-80
2023/10/20 06:09:38;;;;;;;22.80;10.33;;;4.50;99.90;;;;;;10318703;28;20189;-79
2023/10/20 06:14:59;;;;;;;25.17;10.00;;;4.50;99.90;;;;;;10315821;28;20323;-79
2023/10/20 06:20:20;;;;;;;19.50;8.50;;;4.50;99.90;;;;;;10322735;28;20516;-78
2023/10/20 06:25:42;;;;;;;12.17;6.50;;;4.40;1.00;;;;;;10317889;28;20546;-79
2023/10/20 06:36:51;;;;;;;16.77;8.17;;;4.50;99.90;;;;;;10316425;28;20263;-80
2023/10/20 06:42:12;;;;;;;8.60;5.83;;;4.50;1.00;;;;;;10289136;28;20291;-79
2023/10/20 06:47:34;;;;;;;8.93;6.03;;;4.40;1.40;;;;;;10302057;28;20209;-79
2023/10/20 06:52:58;;;;;;;7.63;4.13;;;4.50;1.00;;;;;;10315985;28;20198;-78
2023/10/20 06:58:19;;;;;;;9.60;5.17;;;4.50;99.90;;;;;;10331385;28;20423;-78
2023/10/20 07:03:40;;;;;;;10.27;5.03;;;4.40;1.00;;;;;;10315557;28;20280;-79
2023/10/20 07:09:10;;;;;;;6.23;3.90;;;4.40;1.00;;;;;;10301388;28;20198;-78
2023/10/20 07:14:38;;;;;;;10.93;5.33;;;4.40;99.90;;;;;;10312717;28;20215;-79
2023/10/20 07:19:59;;;;;;;13.63;6.43;;;4.50;1.00;;;;;;10280968;28;20256;-76
2023/10/20 07:25:20;;;;;;;13.53;7.30;;;4.50;1.00;;;;;;10309815;28;20197;-78
2023/10/20 07:30:42;;;;;;;8.77;5.67;;;4.50;1.00;;;;;;10309804;28;20425;-77
2023/10/20 07:36:07;;;;;;;16.73;9.43;;;4.50;99.90;;;;;;10294879;28;20279;-77
2023/10/20 07:41:28;;;;;;;11.87;6.17;;;4.60;99.90;;;;;;10309835;28;20221;-77
2023/10/20 07:46:49;;;;;;;11.77;5.77;;;4.50;1.00;;;;;;10309054;28;20189;-77
2023/10/20 07:52:11;;;;;;;6.23;4.63;;;4.40;1.00;;;;;;10310493;28;20301;-77
2023/10/20 07:57:33;;;;;;;8.87;5.57;;;4.50;99.90;;;;;;10308553;28;20221;-78
2023/10/20 08:02:54;;;;;;;6.37;4.53;;;4.50;99.90;;;;;;10294314;28;20206;-79
2023/10/20 08:08:15;;;;;;;7.87;4.20;;;4.50;99.90;;;;;;10295107;28;20562;-76
2023/10/20 08:13:37;;;;;;;7.93;4.53;;;4.40;1.00;;;;;;10309701;28;20256;-77
2023/10/20 08:18:59;;;;;;;11.10;5.23;;;4.30;1.00;;;;;;10286277;28;20257;-77
2023/10/20 08:24:20;;;;;;;5.40;4.03;;;4.30;99.90;;;;;;10269319;28;20210;-76
2023/10/20 08:29:41;;;;;;;13.23;5.73;;;4.30;1.00;;;;;;10313884;28;20239;-77
2023/10/20 08:35:06;;;;;;;9.17;6.03;;;4.50;99.90;;;;;;10316082;28;20204;-76
2023/10/20 08:40:33;;;;;;;16.50;8.03;;;4.50;1.00;;;;;;10315031;28;20252;-76
2023/10/20 08:45:56;;;;;;;13.13;6.73;;;4.50;1.00;;;;;;10315787;28;20201;-79
2023/10/20 08:51:18;;;;;;;7.63;4.50;;;4.30;99.90;;;;;;10316179;28;20493;-76
2023/10/20 08:56:40;;;;;;;5.73;3.93;;;4.30;1.00;;;;;;10299954;28;20230;-76
2023/10/20 09:02:02;;;;;;;15.47;7.53;;;4.30;1.00;;;;;;10314965;28;20292;-76
2023/10/20 09:07:25;;;;;;;16.40;6.03;;;4.30;99.90;;;;;;10316261;28;20194;-76
2023/10/20 09:12:46;;;;;;;11.83;5.77;;;4.30;1.00;;;;;;10315090;28;20200;-77
2023/10/20 09:18:11;;;;;;;12.43;5.70;;;4.30;1.00;;;;;;10311811;28;20233;-81
2023/10/20 09:23:32;;;;;;;10.50;5.20;;;4.30;17.20;;;;;;10300281;28;20406;-77
2023/10/20 09:28:55;;;;;;;8.67;4.67;;;4.20;99.90;;;;;;10296555;28;20204;-77
2023/10/20 09:34:16;;;;;;;8.03;4.90;;;4.20;1.00;;;;;;10314961;28;20214;-79
2023/10/20 09:39:41;;;;;;;6.27;3.97;;;4.30;1.00;;;;;;10306817;28;20253;-80
2023/10/20 09:45:14;;;;;;;16.53;6.10;;;4.30;99.90;;;;;;10301092;28;20201;-76
2023/10/20 09:50:35;;;;;;;63.77;13.10;;;4.20;1.00;;;;;;10302766;28;20204;-78
2023/10/20 09:55:57;;;;;;;102.83;16.83;;;4.20;99.90;;;;;;10312363;28;20214;-78
2023/10/20 10:01:18;;;;;;;31.13;7.37;;;4.20;1.00;;;;;;10279093;28;20285;-78
2023/10/20 10:06:45;;;;;;;18.30;5.67;;;4.30;1.00;;;;;;10301840;28;20576;-78
2023/10/20 10:12:09;;;;;;;37.67;9.07;;;4.30;1.00;;;;;;10293210;28;20198;-77
2023/10/20 10:17:30;;;;;;;7.83;4.40;;;4.40;1.00;;;;;;10294406;28;20280;-76
2023/10/20 10:23:01;;;;;;;6.97;4.70;;;4.30;1.00;;;;;;10304033;28;20209;-78
2023/10/20 10:28:24;;;;;;;8.37;4.40;;;4.40;99.90;;;;;;10309017;28;20202;-76
2023/10/20 10:33:45;;;;;;;11.33;5.53;;;4.30;1.00;;;;;;10294109;28;20196;-78
2023/10/20 10:39:06;;;;;;;11.80;6.40;;;4.40;1.00;;;;;;10285296;28;20436;-79
2023/10/20 10:44:35;;;;;;;12.77;6.50;;;4.30;1.00;;;;;;10295520;28;20232;-78
2023/10/20 10:50:01;;;;;;;11.17;6.07;;;4.40;99.90;;;;;;10301973;28;20373;-78
2023/10/20 10:55:24;;;;;;;10.93;6.13;;;4.50;1.00;;;;;;10299649;28;20189;-78
2023/10/20 11:00:46;;;;;;;15.87;7.80;;;4.50;2.70;;;;;;10301142;28;20391;-79
2023/10/20 11:06:07;;;;;;;27.60;14.10;;;4.50;64.90;;;;;;10294030;28;20196;-78
2023/10/20 11:11:31;;;;;;;18.70;10.80;;;4.40;99.90;;;;;;10309764;28;20513;-78
2023/10/20 11:16:53;;;;;;;40.30;20.30;;;4.40;1.00;;;;;;10309290;28;20232;-81
2023/10/20 11:22:18;;;;;;;34.57;17.40;;;4.40;99.90;;;;;;10305408;28;20206;-78
2023/10/20 11:27:41;;;;;;;16.33;5.70;;;4.50;1.00;;;;;;10305305;28;20564;-80
2023/10/20 11:33:06;;;;;;;14.67;6.97;;;4.50;1.00;;;;;;10277374;28;20199;-81
2023/10/20 11:38:27;;;;;;;11.67;6.43;;;4.40;99.90;;;;;;10295234;28;20248;-82
2023/10/20 11:43:49;;;;;;;19.43;8.10;;;4.40;99.90;;;;;;10301797;28;20193;-81
2023/10/20 11:49:13;;;;;;;16.63;10.43;;;4.40;1.00;;;;;;10274217;28;20227;-87
2023/10/20 11:54:34;;;;;;;13.30;7.53;;;4.50;99.90;;;;;;10301861;28;20194;-87
2023/10/20 11:59:55;;;;;;;12.40;5.97;;;4.50;1.00;;;;;;10272692;28;20428;-77
2023/10/20 12:05:17;;;;;;;13.00;7.40;;;4.50;99.90;;;;;;10288643;28;20200;-78
2023/10/20 12:10:39;;;;;;;33.03;9.97;;;4.50;99.90;;;;;;10298635;28;20212;-77
2023/10/20 12:16:00;;;;;;;11.43;5.97;;;4.50;1.00;;;;;;10290544;28;20222;-80
2023/10/20 12:21:21;;;;;;;10.00;5.70;;;4.50;1.00;;;;;;10293074;28;20202;-77
2023/10/20 12:26:44;;;;;;;14.20;6.40;;;4.40;1.00;;;;;;10292326;28;20394;-77
2023/10/20 12:32:07;;;;;;;16.17;10.57;;;4.50;99.90;;;;;;10297789;28;20222;-77
2023/10/20 12:37:28;;;;;;;9.60;6.10;;;4.40;1.00;;;;;;10304409;28;20236;-78
2023/10/20 12:42:49;;;;;;;12.47;7.53;;;4.40;1.00;;;;;;10290942;28;20200;-77
2023/10/20 12:48:11;;;;;;;17.13;8.60;;;4.40;1.00;;;;;;10298628;28;20202;-77
2023/10/20 12:53:32;;;;;;;14.87;8.80;;;4.30;1.00;;;;;;10302019;28;20200;-77
2023/10/20 12:58:53;;;;;;;13.53;8.17;;;4.30;1.00;;;;;;10276425;28;20232;-78
2023/10/20 13:04:14;;;;;;;9.93;6.63;;;4.40;1.00;;;;;;10305226;28;20380;-78
2023/10/20 13:09:36;;;;;;;11.20;7.00;;;4.40;1.00;;;;;;10290104;28;20193;-77
2023/10/20 13:14:57;;;;;;;12.13;7.43;;;4.40;99.90;;;;;;10311940;28;20208;-77
2023/10/20 13:20:18;;;;;;;16.73;7.37;;;4.40;1.00;;;;;;10309520;28;20220;-77
2023/10/20 13:25:40;;;;;;;12.27;6.27;;;4.40;99.90;;;;;;10293064;28;20212;-80
2023/10/20 13:31:03;;;;;;;9.17;6.60;;;4.40;9.70;;;;;;10298599;28;20202;-77
2023/10/20 13:36:27;;;;;;;9.43;6.87;;;4.40;1.00;;;;;;10297090;28;20220;-78
2023/10/20 13:41:49;;;;;;;16.80;9.43;;;4.40;1.00;;;;;;10310936;28;20199;-77
2023/10/20 13:47:10;;;;;;;12.93;8.27;;;4.40;1.00;;;;;;10296715;28;20203;-78
2023/10/20 13:52:33;;;;;;;12.13;8.07;;;4.40;99.90;;;;;;10304352;28;20201;-77
2023/10/20 13:57:54;;;;;;;11.87;8.30;;;4.30;1.00;;;;;;10310135;28;20223;-76
2023/10/20 14:03:15;;;;;;;14.97;7.90;;;4.30;1.00;;;;;;10296690;28;20202;-77
2023/10/20 14:08:37;;;;;;;11.17;7.10;;;4.30;1.00;;;;;;10311271;28;20204;-77
2023/10/20 14:14:00;;;;;;;11.80;7.07;;;4.30;3.30;;;;;;10309954;28;20196;-77
2023/10/20 14:19:22;;;;;;;14.37;7.17;;;4.30;1.00;;;;;;10294924;28;20402;-77
2023/10/20 14:24:43;;;;;;;8.63;6.03;;;4.30;1.00;;;;;;10311886;28;20486;-77
2023/10/20 14:30:04;;;;;;;15.30;8.93;;;4.20;1.00;;;;;;10272563;28;20196;-76
2023/10/20 14:35:25;;;;;;;16.17;8.63;;;4.20;99.90;;;;;;10291515;28;20202;-77
2023/10/20 14:40:46;;;;;;;10.50;7.87;;;4.10;99.90;;;;;;10310158;28;20578;-77
2023/10/20 14:46:09;;;;;;;16.73;8.17;;;4.10;99.90;;;;;;10305148;28;20510;-79
2023/10/20 14:51:30;;;;;;;14.80;10.03;;;4.20;99.90;;;;;;10309126;28;20220;-77
2023/10/20 14:56:53;;;;;;;12.30;7.50;;;4.10;99.90;;;;;;10305367;28;20233;-77
2023/10/20 15:02:15;;;;;;;10.50;7.47;;;4.20;1.00;;;;;;10309415;28;20205;-78
2023/10/20 15:07:40;;;;;;;18.57;10.83;;;4.20;1.00;;;;;;10314713;28;20201;-77
2023/10/20 15:13:05;;;;;;;31.63;12.07;;;4.10;99.90;;;;;;10314203;28;20196;-78
2023/10/20 15:18:26;;;;;;;14.80;8.40;;;4.00;99.90;;;;;;10310323;28;20235;-78
2023/10/20 15:23:48;;;;;;;19.20;9.00;;;4.00;99.90;;;;;;10315902;28;20495;-79
2023/10/20 15:29:11;;;;;;;18.80;7.97;;;4.00;99.90;;;;;;10279510;28;20202;-78
2023/10/20 15:34:32;;;;;;;15.57;7.83;;;4.00;99.90;;;;;;10310915;28;20489;-77
2023/10/20 15:39:53;;;;;;;14.80;8.03;;;4.00;99.90;;;;;;10311790;28;20439;-78
2023/10/20 15:45:20;;;;;;;12.97;7.97;;;3.90;99.90;;;;;;10312184;28;20227;-78
2023/10/20 15:50:43;;;;;;;13.30;6.50;;;4.00;1.00;;;;;;10315079;28;20215;-76
2023/10/20 15:56:05;;;;;;;12.03;7.23;;;3.90;1.00;;;;;;10314966;28;20190;-76
2023/10/20 16:01:28;;;;;;;15.00;7.13;;;4.00;1.00;;;;;;10313568;28;20388;-76
2023/10/20 16:06:49;;;;;;;17.60;10.90;;;4.00;1.00;;;;;;10314373;28;20192;-78
2023/10/20 16:12:10;;;;;;;16.00;7.37;;;4.00;1.00;;;;;;10314378;28;20219;-77
2023/10/20 16:17:31;;;;;;;10.97;6.77;;;3.90;1.00;;;;;;10307722;28;20238;-77
2023/10/20 16:22:52;;;;;;;12.30;7.20;;;3.90;1.00;;;;;;10303066;28;20188;-77
2023/10/20 16:28:14;;;;;;;20.53;9.27;;;3.90;1.00;;;;;;10313889;28;20224;-78
2023/10/20 16:33:35;;;;;;;10.93;5.73;;;3.80;1.00;;;;;;10312826;28;20198;-76
2023/10/20 16:38:57;;;;;;;9.77;6.67;;;3.80;1.00;;;;;;10313958;28;20306;-76
2023/10/20 16:44:18;;;;;;;25.03;9.37;;;3.80;1.00;;;;;;10313853;28;20271;-78
2023/10/20 16:49:40;;;;;;;14.03;6.17;;;3.80;1.00;;;;;;10321864;28;20191;-78
2023/10/20 16:55:01;;;;;;;13.03;7.43;;;3.80;1.00;;;;;;10320786;28;20385;-78
2023/10/20 17:00:23;;;;;;;14.27;6.90;;;3.80;1.00;;;;;;10306692;28;20261;-78
2023/10/20 17:05:44;;;;;;;10.93;5.83;;;3.80;1.00;;;;;;10321495;28;20192;-76
2023/10/20 17:11:05;;;;;;;13.63;6.90;;;3.80;1.00;;;;;;10319945;28;20391;-78
2023/10/20 17:16:27;;;;;;;11.80;6.50;;;3.80;1.00;;;;;;10319229;28;20397;-78
2023/10/20 17:21:48;;;;;;;13.23;6.23;;;3.80;1.00;;;;;;10305681;28;20203;-77
2023/10/20 17:27:09;;;;;;;7.43;5.30;;;3.80;1.00;;;;;;10319898;28;20363;-77
2023/10/20 17:32:31;;;;;;;9.33;6.37;;;3.80;1.00;;;;;;10320328;28;20187;-78
2023/10/20 17:37:53;;;;;;;15.07;10.10;;;3.90;1.00;;;;;;10319973;28;20314;-78
2023/10/20 17:43:14;;;;;;;12.43;7.00;;;3.90;1.00;;;;;;10320163;28;20204;-78
2023/10/20 17:48:35;;;;;;;13.27;6.60;;;3.90;1.00;;;;;;10320054;28;20195;-75
2023/10/20 17:53:57;;;;;;;11.27;6.97;;;3.90;1.00;;;;;;10319042;28;20252;-76
2023/10/20 17:59:18;;;;;;;13.97;7.30;;;3.80;1.00;;;;;;10318181;28;20551;-78
2023/10/20 18:04:39;;;;;;;16.10;7.23;;;3.80;1.00;;;;;;10318065;28;20226;-76
2023/10/20 18:10:00;;;;;;;10.50;6.53;;;3.80;1.00;;;;;;10316133;28;20192;-76
2023/10/20 18:15:22;;;;;;;12.07;5.87;;;3.80;1.00;;;;;;10317354;28;20240;-76
2023/10/20 18:20:44;;;;;;;13.23;6.87;;;3.90;1.00;;;;;;10314107;28;20229;-77
2023/10/20 18:26:05;;;;;;;12.23;6.97;;;3.90;1.00;;;;;;10317278;28;20215;-78
2023/10/20 18:31:26;;;;;;;16.50;10.50;;;3.90;1.00;;;;;;10318098;28;20216;-77
2023/10/20 18:36:47;;;;;;;14.10;7.67;;;3.90;1.00;;;;;;10304147;28;20399;-78
2023/10/20 18:42:10;;;;;;;10.63;6.83;;;3.90;1.00;;;;;;10293126;28;20195;-77
2023/10/20 18:47:31;;;;;;;9.47;6.30;;;3.90;1.00;;;;;;10281191;28;20188;-76
2023/10/20 18:52:53;;;;;;;17.90;11.87;;;3.90;1.00;;;;;;10315801;28;20271;-75
2023/10/20 18:58:14;;;;;;;14.00;9.57;;;3.90;1.00;;;;;;10316263;28;20227;-75
2023/10/20 19:03:35;;;;;;;10.73;7.07;;;4.00;1.00;;;;;;10286066;28;20193;-76
2023/10/20 19:08:57;;;;;;;21.20;11.77;;;4.00;1.00;;;;;;10280858;28;20209;-75
2023/10/20 19:14:19;;;;;;;15.83;7.70;;;4.00;1.00;;;;;;10312144;28;20231;-77
2023/10/20 19:19:40;;;;;;;16.37;7.17;;;4.00;1.00;;;;;;10264431;28;20231;-77
2023/10/20 19:25:03;;;;;;;14.57;6.20;;;3.90;1.00;;;;;;10314328;28;20212;-75
2023/10/20 19:30:24;;;;;;;12.03;5.17;;;4.00;1.00;;;;;;10315676;28;20276;-75
2023/10/20 19:35:45;;;;;;;23.50;10.37;;;3.90;1.00;;;;;;10288253;28;20198;-76
2023/10/20 19:41:08;;;;;;;20.90;9.07;;;3.90;1.00;;;;;;10299659;28;20306;-75
2023/10/20 19:46:29;;;;;;;15.33;6.30;;;3.90;1.00;;;;;;10276787;28;20207;-76
2023/10/20 19:51:50;;;;;;;22.87;9.00;;;3.90;1.00;;;;;;10315134;28;20193;-77
2023/10/20 19:57:12;;;;;;;40.13;12.67;;;3.90;1.00;;;;;;10313542;28;20201;-78
2023/10/20 20:02:33;;;;;;;25.70;8.90;;;4.00;1.00;;;;;;10315065;28;20450;-77
2023/10/20 20:07:54;;;;;;;23.77;8.63;;;4.00;1.00;;;;;;10313872;28;20478;-76
2023/10/20 20:13:16;;;;;;;22.83;8.70;;;3.90;1.00;;;;;;10313810;28;20200;-75
2023/10/20 20:18:40;;;;;;;14.07;5.53;;;4.00;1.00;;;;;;10301869;28;20231;-75
2023/10/20 20:24:03;;;;;;;23.60;8.20;;;4.00;1.00;;;;;;10298487;28;20382;-75
2023/10/20 20:29:24;;;;;;;19.57;7.43;;;4.00;1.00;;;;;;10300899;28;20191;-75
2023/10/20 20:34:45;;;;;;;8.63;4.37;;;4.10;1.00;;;;;;10314482;28;20276;-77
2023/10/20 20:40:08;;;;;;;16.10;7.27;;;4.00;1.00;;;;;;10314078;28;20329;-79
2023/10/20 20:45:29;;;;;;;11.10;5.23;;;4.00;1.00;;;;;;10312830;28;20205;-76
2023/10/20 20:50:50;;;;;;;10.27;5.27;;;4.00;1.00;;;;;;10313724;28;20276;-77
2023/10/20 20:56:11;;;;;;;16.73;7.17;;;4.00;1.00;;;;;;10312786;28;20499;-77
2023/10/20 21:01:33;;;;;;;9.23;4.07;;;4.10;1.00;;;;;;10313305;28;20219;-77
2023/10/20 21:06:54;;;;;;;13.77;6.20;;;4.00;1.00;;;;;;10313844;28;20188;-77
2023/10/20 21:12:15;;;;;;;8.20;3.80;;;4.00;1.00;;;;;;10313622;28;20227;-77
2023/10/20 21:17:36;;;;;;;4.53;3.03;;;4.00;1.00;;;;;;10306900;28;20232;-77
2023/10/20 21:22:57;;;;;;;3.10;2.57;;;4.00;1.00;;;;;;10313671;28;20201;-77
2023/10/20 21:28:18;;;;;;;6.00;3.00;;;4.10;1.00;;;;;;10313507;28;20336;-77
2023/10/20 21:33:40;;;;;;;3.53;2.30;;;4.10;1.00;;;;;;10317635;28;20200;-76
2023/10/20 21:39:06;;;;;;;8.37;4.50;;;4.20;1.00;;;;;;10320315;28;20235;-77
2023/10/20 21:44:27;;;;;;;9.27;4.00;;;4.20;1.00;;;;;;10319879;28;20197;-77
2023/10/20 21:49:48;;;;;;;4.40;2.63;;;4.10;1.00;;;;;;10320013;28;20210;-78
2023/10/20 21:55:09;;;;;;;5.90;3.53;;;4.10;1.00;;;;;;10318580;28;20195;-77
2023/10/20 22:00:31;;;;;;;4.97;1.90;;;4.20;1.00;;;;;;10318295;28;20236;-77
2023/10/20 22:05:53;;;;;;;2.53;1.73;;;4.20;1.00;;;;;;10319423;28;20488;-77
2023/10/20 22:11:14;;;;;;;3.87;2.43;;;4.10;1.00;;;;;;10319282;28;20213;-77
2023/10/20 22:16:35;;;;;;;2.50;1.80;;;4.10;1.00;;;;;;10317202;28;20388;-77
2023/10/20 22:21:56;;;;;;;2.90;1.90;;;4.20;1.00;;;;;;10318242;28;20248;-75
2023/10/20 22:27:17;;;;;;;5.47;3.40;;;4.10;1.00;;;;;;10317809;28;20193;-75
2023/10/20 22:32:39;;;;;;;3.77;2.07;;;4.10;1.00;;;;;;10318425;28;20281;-75
2023/10/20 22:37:59;;;;;;;2.77;2.00;;;4.10;10.30;;;;;;10317675;28;20411;-75
2023/10/20 22:43:21;;;;;;;2.07;1.40;;;4.20;1.00;;;;;;10315764;28;20235;-76
2023/10/20 22:48:42;;;;;;;3.87;1.80;;;4.20;1.00;;;;;;10316472;28;20201;-76
2023/10/20 22:54:03;;;;;;;2.27;1.57;;;4.30;1.00;;;;;;10316204;28;20200;-75
2023/10/20 22:59:25;;;;;;;1.77;1.30;;;4.30;1.00;;;;;;10316000;28;20221;-76
2023/10/20 23:04:46;;;;;;;1.93;1.57;;;4.30;1.00;;;;;;10302406;28;20275;-76
2023/10/20 23:10:08;;;;;;;1.57;1.37;;;4.20;6.60;;;;;;10288357;28;20201;-77
2023/10/20 23:15:29;;;;;;;1.53;1.20;;;4.20;78.10;;;;;;10314823;28;20276;-77
2023/10/20 23:20:54;;;;;;;3.37;1.20;;;4.10;99.90;;;;;;10300924;28;20240;-77
2023/10/20 23:26:15;;;;;;;1.57;1.30;;;4.20;99.90;;;;;;10314840;28;20201;-77
2023/10/20 23:31:37;;;;;;;1.47;1.07;;;4.30;67.80;;;;;;10316062;28;20454;-77
2023/10/20 23:37:03;;;;;;;6.77;1.10;;;4.30;99.90;;;;;;10314271;28;20226;-76
2023/10/20 23:42:24;;;;;;;1.83;1.27;;;4.30;99.90;;;;;;10314843;28;20224;-76
2023/10/20 23:47:45;;;;;;;1.90;1.20;;;4.30;99.90;;;;;;10315473;28;20200;-75
2023/10/20 23:53:06;;;;;;;1.80;1.20;;;4.40;99.90;;;;;;10315120;28;20190;-77
2023/10/20 23:58:27;;;;;;;1.17;0.70;;;4.40;84.10;;;;;;10314261;28;20212;-77
